createdAt,value
2019-03-04T00:01:13.010Z,7.83
2019-03-04T00:04:21.506Z,10.93
2019-03-04T00:07:40.419Z,13.33
2019-03-04T00:10:49.286Z,8.87
2019-03-04T00:13:57.798Z,13.23
2019-03-04T00:17:06.672Z,10.30
2019-03-04T00:20:15.184Z,11.80
2019-03-04T00:23:24.116Z,11.13
2019-03-04T00:26:32.716Z,12.27
2019-03-04T00:29:41.470Z,9.30
2019-03-04T00:32:49.972Z,10.17
2019-03-04T00:35:59.142Z,10.27
2019-03-04T00:39:11.791Z,9.93
2019-03-04T00:42:20.277Z,8.77
2019-03-04T00:45:29.514Z,11.13
2019-03-04T00:48:38.115Z,9.37
2019-03-04T00:51:46.680Z,10.43
2019-03-04T00:54:55.188Z,8.93
2019-03-04T00:58:03.886Z,10.13
2019-03-04T01:01:12.490Z,10.10
2019-03-04T01:04:21.130Z,10.83
2019-03-04T01:07:29.744Z,8.60
2019-03-04T01:10:48.678Z,7.80
2019-03-04T01:13:57.163Z,6.93
2019-03-04T01:17:05.671Z,10.07
2019-03-04T01:20:16.133Z,11.00
2019-03-04T01:23:24.602Z,9.13
2019-03-04T01:26:38.170Z,7.60
2019-03-04T01:29:46.732Z,6.57
2019-03-04T01:33:05.559Z,6.50
2019-03-04T01:36:14.081Z,6.60
2019-03-04T01:39:22.696Z,6.73
2019-03-04T01:42:31.280Z,10.13
2019-03-04T01:45:39.651Z,10.03
2019-03-04T01:48:58.591Z,6.87
2019-03-04T01:52:07.292Z,7.40
2019-03-04T01:55:16.381Z,6.20
2019-03-04T01:58:24.860Z,5.77
2019-03-04T02:01:33.510Z,8.60
2019-03-04T02:04:42.218Z,6.73
2019-03-04T02:07:51.201Z,8.90
2019-03-04T02:10:59.719Z,8.30
2019-03-04T02:14:08.201Z,7.03
2019-03-04T02:17:16.768Z,6.57
2019-03-04T02:20:35.515Z,8.40
2019-03-04T02:23:44.536Z,6.70
2019-03-04T02:26:54.122Z,6.43
2019-03-04T02:30:02.636Z,5.57
2019-03-04T02:33:11.323Z,6.33
2019-03-04T02:36:20.254Z,7.73
2019-03-04T02:39:28.868Z,7.30
2019-03-04T02:42:47.705Z,6.17
2019-03-04T02:45:56.540Z,4.90
2019-03-04T02:49:05.195Z,5.37
2019-03-04T02:52:13.750Z,5.47
2019-03-04T02:55:22.231Z,6.07
2019-03-04T02:58:30.772Z,5.53
2019-03-04T03:01:52.423Z,4.37
2019-03-04T03:05:13.295Z,4.90
2019-03-04T03:08:32.415Z,6.73
2019-03-04T03:11:41.048Z,5.43
2019-03-04T03:14:49.710Z,5.47
2019-03-04T03:17:58.808Z,5.83
2019-03-04T03:21:07.446Z,4.00
2019-03-04T03:24:16.115Z,4.73
2019-03-04T03:27:24.719Z,6.87
2019-03-04T03:30:33.274Z,7.20
2019-03-04T03:33:41.856Z,4.57
2019-03-04T03:36:50.357Z,4.93
2019-03-04T03:40:11.940Z,7.17
2019-03-04T03:43:20.479Z,6.37
2019-03-04T03:46:28.987Z,5.37
2019-03-04T03:49:48.098Z,6.37
2019-03-04T03:52:56.644Z,3.30
2019-03-04T03:56:05.202Z,3.60
2019-03-04T03:59:13.877Z,4.83
2019-03-04T04:02:22.385Z,3.43
2019-03-04T04:05:31.014Z,3.23
2019-03-04T04:08:39.520Z,3.00
2019-03-04T04:11:58.426Z,3.90
2019-03-04T04:15:07.062Z,3.47
2019-03-04T04:18:15.673Z,5.17
2019-03-04T04:21:24.290Z,4.33
2019-03-04T04:24:32.823Z,4.23
2019-03-04T04:27:41.428Z,2.40
2019-03-04T04:31:00.307Z,3.43
2019-03-04T04:34:09.016Z,3.30
2019-03-04T04:37:17.766Z,2.77
2019-03-04T04:40:26.276Z,3.33
2019-03-04T04:43:34.793Z,4.10
2019-03-04T04:46:55.730Z,6.20
2019-03-04T04:50:04.310Z,5.10
2019-03-04T04:53:12.775Z,2.80
2019-03-04T04:56:21.481Z,3.20
2019-03-04T04:59:30.083Z,2.80
2019-03-04T05:02:38.226Z,3.93
2019-03-04T05:05:57.228Z,3.93
2019-03-04T05:09:09.575Z,5.43
2019-03-04T05:12:18.739Z,3.43
2019-03-04T05:15:27.628Z,3.73
2019-03-04T05:18:36.256Z,2.90
2019-03-04T05:21:54.927Z,3.50
2019-03-04T05:25:03.411Z,3.60
2019-03-04T05:28:11.929Z,5.83
2019-03-04T05:31:20.406Z,3.43
2019-03-04T05:34:39.189Z,5.10
2019-03-04T05:37:47.789Z,7.30
2019-03-04T05:40:56.275Z,4.97
2019-03-04T05:44:04.801Z,3.73
2019-03-04T05:47:13.319Z,5.00
2019-03-04T05:50:32.029Z,3.57
2019-03-04T05:53:40.641Z,3.07
2019-03-04T05:56:49.125Z,3.00
2019-03-04T05:59:57.648Z,2.27
2019-03-04T06:03:06.329Z,3.20
2019-03-04T06:06:15.085Z,2.13
2019-03-04T06:09:23.777Z,3.07
2019-03-04T06:12:42.629Z,4.67
2019-03-04T06:15:51.273Z,2.87
2019-03-04T06:19:00.022Z,2.77
2019-03-04T06:22:08.628Z,3.07
2019-03-04T06:25:23.227Z,2.73
2019-03-04T06:28:42.042Z,2.43
2019-03-04T06:31:50.705Z,3.83
2019-03-04T06:34:59.455Z,3.93
2019-03-04T06:38:08.159Z,2.27
2019-03-04T06:41:16.754Z,3.10
2019-03-04T06:44:25.337Z,2.07
2019-03-04T06:47:33.949Z,2.00
2019-03-04T06:50:56.001Z,3.57
2019-03-04T06:54:48.550Z,2.90
2019-03-04T06:57:57.156Z,2.93
2019-03-04T07:01:18.310Z,3.10
2019-03-04T07:05:08.643Z,5.70
2019-03-04T07:09:17.712Z,2.30
2019-03-04T07:12:36.534Z,2.47
2019-03-04T07:15:45.039Z,3.37
2019-03-04T07:18:53.616Z,3.80
2019-03-04T07:22:02.234Z,3.00
2019-03-04T07:25:10.792Z,3.60
2019-03-04T07:28:29.826Z,4.97
2019-03-04T07:31:38.324Z,5.53
2019-03-04T07:34:46.829Z,4.17
2019-03-04T07:38:28.003Z,3.43
2019-03-04T07:41:39.747Z,3.97
2019-03-04T07:44:48.409Z,2.07
2019-03-04T07:47:57.105Z,4.83
2019-03-04T07:51:23.724Z,3.83
2019-03-04T07:54:32.365Z,4.20
2019-03-04T07:57:40.998Z,4.07
2019-03-04T08:00:49.540Z,4.00
2019-03-04T08:03:58.140Z,3.63
2019-03-04T08:07:48.126Z,2.63
2019-03-04T08:11:54.103Z,2.97
2019-03-04T08:15:13.225Z,3.20
2019-03-04T08:18:21.820Z,2.50
2019-03-04T08:21:30.434Z,2.87
2019-03-04T08:24:39.063Z,3.40
2019-03-04T08:27:47.822Z,2.50
2019-03-04T08:30:56.459Z,5.03
2019-03-04T08:34:05.102Z,2.83
2019-03-04T08:37:14.016Z,2.97
2019-03-04T08:40:22.795Z,1.87
2019-03-04T08:43:31.434Z,4.30
2019-03-04T08:46:40.102Z,3.77
2019-03-04T08:49:48.714Z,1.90
2019-03-04T08:53:07.761Z,5.10
2019-03-04T08:56:16.444Z,3.53
2019-03-04T08:59:24.985Z,1.37
2019-03-04T09:02:33.657Z,1.97
2019-03-04T09:05:42.335Z,1.63
2019-03-04T09:08:51.004Z,0.60
2019-03-04T09:11:59.541Z,2.10
2019-03-04T09:15:09.065Z,1.80
2019-03-04T09:18:17.658Z,1.60
2019-03-04T09:21:27.346Z,0.70
2019-03-04T09:24:46.343Z,4.70
2019-03-04T09:27:54.986Z,1.63
2019-03-04T09:31:03.589Z,0.87
2019-03-04T09:34:12.133Z,1.03
2019-03-04T09:37:20.816Z,1.20
2019-03-04T09:40:31.208Z,0.87
2019-03-04T09:43:40.960Z,1.23
2019-03-04T09:47:00.089Z,2.30
2019-03-04T09:50:12.085Z,1.40
2019-03-04T09:53:20.592Z,2.13
2019-03-04T09:56:29.207Z,0.90
2019-03-04T09:59:37.930Z,0.47
2019-03-04T10:02:49.277Z,1.87
2019-03-04T10:06:33.850Z,2.40
2019-03-04T10:10:18.114Z,1.70
2019-03-04T10:14:10.487Z,2.13
2019-03-04T10:18:02.313Z,1.37
2019-03-04T10:21:56.665Z,2.00
2019-03-04T10:26:03.766Z,2.23
2019-03-04T10:30:10.461Z,1.27
2019-03-04T10:34:08.111Z,0.77
2019-03-04T10:37:57.289Z,2.40
2019-03-04T10:42:06.597Z,4.37
2019-03-04T10:45:33.548Z,2.17
2019-03-04T10:48:42.217Z,2.30
2019-03-04T10:51:50.782Z,2.47
2019-03-04T10:54:59.438Z,2.40
2019-03-04T10:58:09.092Z,0.90
2019-03-04T11:01:30.716Z,1.67
2019-03-04T11:04:39.743Z,0.83
2019-03-04T11:07:47.001Z,1.67
2019-03-04T11:10:55.691Z,2.23
2019-03-04T11:14:04.519Z,3.83
2019-03-04T11:17:13.257Z,4.30
2019-03-04T11:20:22.943Z,2.20
2019-03-04T11:23:31.569Z,3.57
2019-03-04T11:26:42.430Z,3.60
2019-03-04T11:29:51.093Z,1.20
2019-03-04T11:32:59.699Z,3.47
2019-03-04T11:36:06.909Z,2.40
2019-03-04T11:40:05.450Z,2.17
2019-03-04T11:43:14.047Z,1.37
2019-03-04T11:46:24.753Z,1.07
2019-03-04T11:49:33.398Z,2.03
2019-03-04T11:52:42.939Z,3.67
2019-03-04T11:56:01.978Z,3.93
2019-03-04T11:59:10.645Z,1.40
2019-03-04T12:02:23.645Z,1.40
2019-03-04T12:05:32.297Z,0.97
2019-03-04T12:08:41.055Z,1.03
2019-03-04T12:11:50.095Z,1.60
2019-03-04T12:14:58.645Z,1.60
2019-03-04T12:18:07.396Z,2.17
2019-03-04T12:21:16.091Z,0.60
2019-03-04T12:24:24.730Z,1.53
2019-03-04T12:27:43.903Z,1.13
2019-03-04T12:30:52.442Z,2.93
2019-03-04T12:34:02.165Z,2.37
2019-03-04T12:37:11.011Z,1.67
2019-03-04T12:40:20.790Z,1.00
2019-03-04T12:43:29.280Z,1.40
2019-03-04T12:46:37.776Z,0.90
2019-03-04T12:49:46.478Z,1.60
2019-03-04T12:52:54.966Z,0.50
2019-03-04T12:56:03.860Z,0.67
2019-03-04T12:59:12.462Z,0.83
2019-03-04T13:02:21.017Z,0.63
2019-03-04T13:05:29.692Z,1.10
2019-03-04T13:08:49.662Z,0.77
2019-03-04T13:11:58.271Z,0.70
2019-03-04T13:15:06.987Z,0.90
2019-03-04T13:18:15.795Z,0.40
2019-03-04T13:21:24.790Z,2.40
2019-03-04T13:24:33.290Z,0.83
2019-03-04T13:27:41.954Z,0.93
2019-03-04T13:31:00.753Z,0.50
2019-03-04T13:34:09.398Z,0.77
2019-03-04T13:37:19.538Z,0.80
2019-03-04T13:40:28.265Z,0.60
2019-03-04T13:43:36.881Z,0.90
2019-03-04T13:46:45.505Z,1.37
2019-03-04T13:49:54.157Z,1.17
2019-03-04T13:53:13.108Z,1.67
2019-03-04T13:56:21.861Z,1.57
2019-03-04T13:59:30.382Z,1.53
2019-03-04T14:02:38.899Z,1.60
2019-03-04T14:05:47.382Z,1.60
2019-03-04T14:08:55.908Z,1.73
2019-03-04T14:12:17.958Z,0.72
2019-03-04T14:15:39.249Z,1.20
2019-03-04T14:18:47.885Z,1.40
2019-03-04T14:21:56.506Z,1.57
2019-03-04T14:25:15.461Z,2.10
2019-03-04T14:28:24.058Z,2.67
2019-03-04T14:31:32.663Z,2.63
2019-03-04T14:34:41.334Z,4.07
2019-03-04T14:37:50.009Z,2.10
2019-03-04T14:40:58.644Z,2.10
2019-03-04T14:44:07.259Z,2.63
2019-03-04T14:47:15.786Z,3.00
2019-03-04T14:50:34.768Z,3.30
2019-03-04T14:53:43.344Z,5.80
2019-03-04T14:56:51.919Z,3.13
2019-03-04T15:00:00.506Z,3.40
2019-03-04T15:03:18.997Z,2.53
2019-03-04T15:06:19.552Z,1.70
2019-03-04T15:09:28.296Z,2.13
2019-03-04T15:12:36.873Z,3.70
2019-03-04T15:16:01.678Z,2.37
2019-03-04T15:19:06.097Z,2.33
2019-03-04T15:22:14.842Z,3.20
2019-03-04T15:25:27.512Z,4.03
2019-03-04T15:28:46.308Z,2.60
2019-03-04T15:31:54.889Z,2.80
2019-03-04T15:35:03.492Z,5.17
2019-03-04T15:38:12.124Z,3.77
2019-03-04T15:41:23.768Z,3.67
2019-03-04T15:44:32.365Z,3.07
2019-03-04T15:47:51.311Z,1.80
2019-03-04T15:50:59.911Z,4.03
2019-03-04T15:54:08.506Z,4.80
2019-03-04T15:57:17.209Z,5.30
2019-03-04T16:00:25.916Z,5.13
2019-03-04T16:03:36.636Z,2.97
2019-03-04T16:06:44.858Z,4.57
2019-03-04T16:09:53.888Z,4.20
2019-03-04T16:13:02.881Z,3.27
2019-03-04T16:16:11.475Z,3.50
2019-03-04T16:19:20.151Z,5.00
2019-03-04T16:22:27.350Z,6.17
2019-03-04T16:25:37.164Z,7.90
2019-03-04T16:28:47.271Z,3.10
2019-03-04T16:31:55.871Z,4.13
2019-03-04T16:35:04.783Z,5.30
2019-03-04T16:38:13.276Z,7.63
2019-03-04T16:41:21.920Z,4.70
2019-03-04T16:44:30.512Z,2.60
2019-03-04T16:47:40.324Z,5.87
2019-03-04T16:50:59.455Z,4.30
2019-03-04T16:54:08.081Z,5.53
2019-03-04T16:57:35.936Z,4.43
2019-03-04T17:00:48.088Z,5.03
2019-03-04T17:03:56.366Z,6.50
2019-03-04T17:07:05.176Z,6.63
2019-03-04T17:10:15.799Z,7.30
2019-03-04T17:13:24.289Z,6.07
2019-03-04T17:16:32.998Z,4.93
2019-03-04T17:19:41.769Z,8.20
2019-03-04T17:22:50.650Z,6.10
2019-03-04T17:25:59.284Z,9.67
2019-03-04T17:29:07.887Z,7.20
2019-03-04T17:32:26.772Z,10.97
2019-03-04T17:35:35.427Z,7.53
2019-03-04T17:38:44.151Z,6.67
2019-03-04T17:41:52.816Z,10.20
2019-03-04T17:45:01.464Z,11.30
2019-03-04T17:48:10.400Z,11.20
2019-03-04T17:51:20.281Z,9.03
2019-03-04T17:54:28.912Z,10.40
2019-03-04T17:57:47.717Z,13.33
2019-03-04T18:00:56.710Z,14.60
2019-03-04T18:04:05.347Z,9.73
2019-03-04T18:07:14.035Z,12.70
2019-03-04T18:10:22.739Z,8.70
2019-03-04T18:13:31.718Z,13.63
2019-03-04T18:16:40.258Z,12.30
2019-03-04T18:19:48.935Z,9.97
2019-03-04T18:22:57.464Z,9.63
2019-03-04T18:26:18.461Z,16.03
2019-03-04T18:30:48.920Z,11.67
2019-03-04T18:35:06.585Z,14.73
2019-03-04T18:38:58.572Z,10.57
2019-03-04T18:43:11.292Z,13.13
2019-03-04T18:47:02.245Z,9.70
2019-03-04T18:50:10.811Z,8.33
2019-03-04T18:53:19.468Z,11.60
2019-03-04T18:56:29.925Z,13.60
2019-03-04T18:59:38.559Z,9.67
2019-03-04T19:02:48.669Z,12.00
2019-03-04T19:06:07.840Z,10.10
2019-03-04T19:09:26.807Z,13.90
2019-03-04T19:12:35.451Z,14.27
2019-03-04T19:15:43.931Z,12.77
2019-03-04T19:18:52.620Z,13.77
2019-03-04T19:22:01.203Z,15.67
2019-03-04T19:25:10.519Z,16.67
2019-03-04T19:28:19.042Z,8.67
2019-03-04T19:31:29.266Z,12.20
2019-03-04T19:34:37.873Z,10.70
2019-03-04T19:37:46.448Z,9.13
2019-03-04T19:41:05.595Z,13.30
2019-03-04T19:44:14.127Z,10.70
2019-03-04T19:47:23.809Z,13.00
2019-03-04T19:50:33.125Z,10.90
2019-03-04T19:53:41.809Z,9.10
2019-03-04T19:56:50.573Z,11.07
2019-03-04T19:59:59.225Z,9.67
2019-03-04T20:03:08.005Z,8.93
2019-03-04T20:06:16.511Z,7.53
2019-03-04T20:09:25.728Z,12.30
2019-03-04T20:12:34.318Z,6.70
2019-03-04T20:15:42.988Z,9.83
2019-03-04T20:18:51.638Z,6.73
2019-03-04T20:22:10.371Z,10.53
2019-03-04T20:25:19.114Z,8.93
2019-03-04T20:28:27.820Z,7.07
2019-03-04T20:31:36.336Z,10.90
2019-03-04T20:34:44.967Z,10.80
2019-03-04T20:37:57.577Z,10.73
2019-03-04T20:41:06.191Z,10.33
2019-03-04T20:44:17.447Z,10.10
2019-03-04T20:47:26.180Z,10.80
2019-03-04T20:50:46.519Z,6.67
2019-03-04T20:53:55.205Z,6.13
2019-03-04T20:57:05.191Z,7.10
2019-03-04T21:00:19.332Z,8.07
2019-03-04T21:03:34.995Z,7.87
2019-03-04T21:06:38.257Z,9.20
2019-03-04T21:09:46.832Z,6.23
2019-03-04T21:12:57.021Z,6.47
2019-03-04T21:16:06.258Z,6.23
2019-03-04T21:19:15.193Z,5.47
2019-03-04T21:22:23.702Z,4.90
2019-03-04T21:26:00.532Z,7.03
2019-03-04T21:30:19.667Z,7.10
2019-03-04T21:33:58.301Z,8.40
2019-03-04T21:37:30.641Z,9.13
2019-03-04T21:42:01.262Z,8.87
2019-03-04T21:45:55.098Z,7.07
2019-03-04T21:49:08.444Z,6.70
2019-03-04T21:52:53.318Z,9.40
2019-03-04T21:57:02.651Z,11.30
2019-03-04T22:00:34.896Z,7.43
2019-03-04T22:03:53.778Z,7.67
2019-03-04T22:07:03.898Z,5.13
2019-03-04T22:10:14.804Z,11.93
2019-03-04T22:13:24.706Z,6.77
2019-03-04T22:16:33.500Z,8.60
2019-03-04T22:19:42.161Z,8.23
2019-03-04T22:22:50.747Z,7.00
2019-03-04T22:26:02.261Z,6.10
2019-03-04T22:29:09.809Z,9.27
2019-03-04T22:32:18.434Z,8.40
2019-03-04T22:35:27.108Z,8.47
2019-03-04T22:38:34.427Z,7.43
2019-03-04T22:41:53.224Z,8.77
2019-03-04T22:45:01.891Z,11.97
2019-03-04T22:48:10.682Z,6.40
2019-03-04T22:51:19.678Z,12.30
2019-03-04T22:54:28.211Z,10.00
2019-03-04T22:57:36.982Z,9.97
2019-03-04T23:01:33.117Z,12.40
2019-03-04T23:05:19.171Z,9.63
2019-03-04T23:08:27.837Z,9.10
2019-03-04T23:11:38.125Z,9.70
2019-03-04T23:14:48.137Z,9.47
2019-03-04T23:18:07.245Z,14.57
2019-03-04T23:21:26.371Z,12.23
2019-03-04T23:24:34.878Z,8.40
2019-03-04T23:27:43.439Z,8.97
2019-03-04T23:30:52.090Z,10.30
2019-03-04T23:34:00.668Z,11.20
2019-03-04T23:37:09.370Z,8.17
2019-03-04T23:40:18.078Z,11.53
2019-03-04T23:43:26.313Z,7.93
2019-03-04T23:46:35.109Z,9.47
2019-03-04T23:49:43.693Z,8.57
2019-03-04T23:52:52.324Z,11.90
2019-03-04T23:56:00.939Z,9.80
2019-03-04T23:59:09.591Z,12.33
